X  Chiuso Dati meteorologici dell'aviazione (METAR)     LIPX Verona Villafranca Airport
Temperatura
5°C Temperatura
1°C Punto di rugiada
76% Umidità



Vento
5 KM/H
3 MPH
1 M/S
3 KTS



280°
Ovest
Condizioni attuali

Chiaro Chiaro
Pressione 1025.92 (hPa) - 30.3 (inHg)
Visibilità 6.2 (miglio) - 10 (km)
Aeroporto
Aeroporto-code LIPX

Posizione: Verona Villafranca Airport
Distanza: 14 (km)

Metar:
LIPX 241650Z 28003KT CAVOK 05/01 Q1026

Ore: 24-11-2020 17:50 CET